Terminal Aerodrome Forecast
Issued by NWS

Home | Current Version | Previous Version | Text Only | Print | Product List | Glossary On
Versions: 1 2 3 4 5 6 7 8 9 10 11 12 13 14 15 16 17 18 19 20 21
107
FTUS42 KFFC 041942 AAA
TAFPDK
TAF AMD
KPDK 041942Z 0420/0518 31011G20KT P6SM SCT060
     FM050000 31008KT P6SM BKN060
      TEMPO 0500/0503 33012G20KT 6SM SHRA BKN050
     FM050300 32012KT P6SM BKN060
     FM051100 33012G20KT P6SM SCT060
     FM051500 32018G27KT P6SM BKN060=

USA.gov is the U.S. government's official web portal to all federal, state and local government web resources and services.